Time;durP1;ratioP1;P1;durP2;ratioP2;P2;SDS_P1;SDS_P2;PMS_P1;PMS_P2;Temp;Humidity;BMP_temperature;BMP_pressure;BME280_temperature;BME280_humidity;BME280_pressure;Samples;Min_cycle;Max_cycle;Signal;HPM_P1;HPM_P2
2022/01/24 00:00:30;;;;;;;;;;;3.90;90.80;;;;;;5057424;28;19916;-84
2022/01/24 00:02:56;;;;;;;;;;;3.90;90.80;;;;;;5057152;28;19909;-84
2022/01/24 00:05:22;;;;;;;;;;;3.90;90.80;;;;;;5062159;28;20295;-84
2022/01/24 00:07:48;;;;;;;;;;;3.90;90.70;;;;;;5068029;28;19909;-84
2022/01/24 00:10:18;;;;;;;;;;;3.90;90.70;;;;;;5058454;28;19915;-85
2022/01/24 00:15:47;;;;;;;;;;;3.90;90.70;;;;;;5058669;28;19995;-84
2022/01/24 00:18:12;;;;;;;;;;;3.90;90.80;;;;;;5058247;28;19916;-84
2022/01/24 00:28:50;;;;;;;;;;;3.90;90.90;;;;;;5058486;28;19916;-84
2022/01/24 00:31:16;;;;;;;;;;;3.90;90.90;;;;;;5056808;28;19909;-84
2022/01/24 00:33:42;;;;;;;;;;;3.90;90.90;;;;;;5063660;28;19909;-84
2022/01/24 00:36:07;;;;;;;;;;;3.90;90.90;;;;;;5057920;28;19910;-84
2022/01/24 00:38:33;;;;;;;;;;;3.90;90.80;;;;;;5058034;28;19935;-84
2022/01/24 00:40:59;;;;;;;;;;;3.90;90.80;;;;;;5058164;28;19909;-84
2022/01/24 00:43:38;;;;;;;;;;;3.90;90.80;;;;;;5057650;28;19921;-84
2022/01/24 00:46:09;;;;;;;;;;;3.90;90.80;;;;;;5057906;28;19916;-83
2022/01/24 00:49:24;;;;;;;;;;;3.90;90.80;;;;;;5056681;28;20340;-84
2022/01/24 00:56:52;;;;;;;;;;;3.90;90.80;;;;;;5057788;28;19937;-84
2022/01/24 00:59:18;;;;;;;;;;;3.90;90.90;;;;;;5057988;28;19909;-84
2022/01/24 01:01:43;;;;;;;;;;;3.90;90.90;;;;;;5057657;28;19920;-84
2022/01/24 01:04:09;;;;;;;;;;;3.90;90.90;;;;;;5057819;28;19913;-84
2022/01/24 01:06:38;;;;;;;;;;;3.90;90.90;;;;;;5070898;28;19954;-84
2022/01/24 01:20:00;;;;;;;;;;;3.80;90.80;;;;;;5073095;28;20387;-83
2022/01/24 01:22:26;;;;;;;;;;;3.80;90.80;;;;;;5057566;28;19909;-84
2022/01/24 01:24:54;;;;;;;;;;;3.80;90.80;;;;;;5057484;28;19913;-82
2022/01/24 01:27:26;;;;;;;;;;;3.80;90.70;;;;;;5057693;28;20481;-82
2022/01/24 01:56:18;;;;;;;;;;;3.90;90.60;;;;;;5061312;28;20376;-84
2022/01/24 01:58:44;;;;;;;;;;;3.80;90.60;;;;;;5060932;28;19908;-84
2022/01/24 02:01:10;;;;;;;;;;;3.80;90.50;;;;;;5061232;28;19931;-84
2022/01/24 02:03:35;;;;;;;;;;;3.90;90.60;;;;;;5060887;28;19916;-83
2022/01/24 02:06:01;;;;;;;;;;;3.80;90.50;;;;;;5070436;28;19914;-83
2022/01/24 02:08:28;;;;;;;;;;;3.80;90.50;;;;;;5065011;28;20015;-84
2022/01/24 02:10:55;;;;;;;;;;;3.80;90.50;;;;;;5059478;28;20368;-84
2022/01/24 02:13:23;;;;;;;;;;;3.90;90.60;;;;;;5060685;28;19909;-83
2022/01/24 02:18:41;;;;;;;;;;;3.90;90.60;;;;;;5061002;28;20314;-84
2022/01/24 02:21:11;;;;;;;;;;;3.90;90.60;;;;;;5065578;28;19931;-84
2022/01/24 02:23:42;;;;;;;;;;;3.90;90.60;;;;;;5060511;28;19958;-84
2022/01/24 02:26:14;;;;;;;;;;;3.90;90.60;;;;;;5060760;28;19909;-84
2022/01/24 02:29:05;;;;;;;;;;;3.90;90.50;;;;;;5060910;28;19975;-84
2022/01/24 02:31:50;;;;;;;;;;;3.80;90.40;;;;;;5060553;28;19912;-83
2022/01/24 02:34:20;;;;;;;;;;;3.80;90.40;;;;;;5060333;28;19909;-83
2022/01/24 02:36:46;;;;;;;;;;;3.70;90.30;;;;;;5058867;28;20333;-83
2022/01/24 02:50:02;;;;;;;;;;;3.30;90.30;;;;;;5060158;28;19931;-84
2022/01/24 02:52:28;;;;;;;;;;;3.20;90.30;;;;;;5059804;28;19971;-84
2022/01/24 02:54:54;;;;;;;;;;;3.20;90.30;;;;;;5059983;28;19908;-83
2022/01/24 02:57:20;;;;;;;;;;;3.10;90.30;;;;;;5059992;28;19909;-84
2022/01/24 02:59:46;;;;;;;;;;;3.10;90.30;;;;;;5059999;28;19931;-84
2022/01/24 03:02:12;;;;;;;;;;;3.00;90.20;;;;;;5060075;28;20326;-84
2022/01/24 03:04:38;;;;;;;;;;;2.90;90.20;;;;;;5058553;28;19913;-84
2022/01/24 03:07:03;;;;;;;;;;;2.90;90.30;;;;;;5071666;28;19951;-84
2022/01/24 03:09:29;;;;;;;;;;;2.80;90.30;;;;;;5059839;28;19909;-83
2022/01/24 03:14:21;;;;;;;;;;;2.80;90.20;;;;;;5059709;28;20007;-84
2022/01/24 03:16:47;;;;;;;;;;;2.70;90.20;;;;;;5059760;28;19916;-84
2022/01/24 03:19:13;;;;;;;;;;;2.60;90.10;;;;;;5062185;28;19912;-84
2022/01/24 03:21:41;;;;;;;;;;;2.60;90.10;;;;;;5061814;28;19948;-84
2022/01/24 03:24:06;;;;;;;;;;;2.60;90.20;;;;;;5059501;28;19980;-84
2022/01/24 03:26:32;;;;;;;;;;;2.50;90.10;;;;;;5059391;28;20405;-84
2022/01/24 03:28:58;;;;;;;;;;;2.40;90.00;;;;;;5059595;28;20379;-84
2022/01/24 03:31:23;;;;;;;;;;;2.40;90.00;;;;;;5059290;28;19913;-83
2022/01/24 03:33:49;;;;;;;;;;;2.40;90.00;;;;;;5065971;28;19916;-84
2022/01/24 03:36:15;;;;;;;;;;;2.30;90.00;;;;;;5059196;28;19930;-84
2022/01/24 03:38:40;;;;;;;;;;;2.30;90.00;;;;;;5057950;28;20372;-83
2022/01/24 03:41:06;;;;;;;;;;;2.20;90.00;;;;;;5058940;28;20396;-84
2022/01/24 03:43:32;;;;;;;;;;;2.20;90.00;;;;;;5058851;28;19952;-84
2022/01/24 03:51:08;;;;;;;;;;;2.00;89.80;;;;;;5065258;28;19909;-84
2022/01/24 03:53:34;;;;;;;;;;;2.00;89.80;;;;;;5078881;28;19916;-84
2022/01/24 03:56:00;;;;;;;;;;;2.00;89.80;;;;;;5078605;28;19995;-83
2022/01/24 03:58:25;;;;;;;;;;;1.90;89.90;;;;;;5078855;28;19912;-83
2022/01/24 04:00:51;;;;;;;;;;;1.90;90.00;;;;;;5077428;28;19938;-83
2022/01/24 04:03:17;;;;;;;;;;;1.90;90.00;;;;;;5078758;28;19915;-83
2022/01/24 04:05:43;;;;;;;;;;;1.80;90.10;;;;;;5078569;28;20003;-84
2022/01/24 04:08:09;;;;;;;;;;;1.80;90.10;;;;;;5064787;28;19916;-84
2022/01/24 04:10:41;;;;;;;;;;;1.70;90.00;;;;;;5058698;28;19909;-84
2022/01/24 04:13:29;;;;;;;;;;;1.70;90.00;;;;;;5058499;28;20318;-84
2022/01/24 04:16:11;;;;;;;;;;;1.70;90.00;;;;;;5058804;28;20004;-83
2022/01/24 04:18:54;;;;;;;;;;;1.70;89.90;;;;;;5058378;28;19916;-83
2022/01/24 04:23:50;;;;;;;;;;;1.60;89.90;;;;;;5058473;28;19908;-83
2022/01/24 04:26:16;;;;;;;;;;;1.50;89.70;;;;;;5058248;28;19908;-83
2022/01/24 04:28:41;;;;;;;;;;;1.50;89.70;;;;;;5057038;28;19908;-83
2022/01/24 04:31:07;;;;;;;;;;;1.50;89.70;;;;;;5058376;28;19991;-83
2022/01/24 04:33:33;;;;;;;;;;;1.40;89.50;;;;;;5064483;28;19954;-83
2022/01/24 04:35:58;;;;;;;;;;;1.40;89.60;;;;;;5058004;28;19908;-83
2022/01/24 04:38:24;;;;;;;;;;;1.40;89.60;;;;;;5058097;28;19909;-83
2022/01/24 04:40:55;;;;;;;;;;;1.30;89.50;;;;;;5057964;28;20002;-83
2022/01/24 04:46:15;;;;;;;;;;;1.20;89.50;;;;;;5052241;28;19912;-83
2022/01/24 04:51:36;;;;;;;;;;;1.20;89.50;;;;;;5057610;28;20391;-83
2022/01/24 04:56:35;;;;;;;;;;;1.10;89.60;;;;;;5057903;28;19912;-83
2022/01/24 04:59:01;;;;;;;;;;;1.00;89.50;;;;;;5057819;28;19916;-84
2022/01/24 05:01:26;;;;;;;;;;;1.00;89.50;;;;;;5057891;28;19909;-83
2022/01/24 05:03:52;;;;;;;;;;;1.00;89.60;;;;;;5057707;28;19939;-83
2022/01/24 05:06:18;;;;;;;;;;;0.90;89.50;;;;;;5069149;28;19908;-83
2022/01/24 05:08:44;;;;;;;;;;;0.90;89.40;;;;;;5058796;28;20410;-83
2022/01/24 05:11:14;;;;;;;;;;;0.90;89.40;;;;;;5057741;28;19916;-83
2022/01/24 05:24:20;;;;;;;;;;;0.70;89.60;;;;;;5057527;28;20287;-83
2022/01/24 05:26:46;;;;;;;;;;;0.70;89.60;;;;;;5058103;28;20011;-83
2022/01/24 05:29:12;;;;;;;;;;;0.70;89.70;;;;;;5057633;28;19916;-83
2022/01/24 05:31:37;;;;;;;;;;;0.60;89.60;;;;;;5058029;28;19909;-83
2022/01/24 05:34:03;;;;;;;;;;;0.60;89.70;;;;;;5063963;28;21022;-83
2022/01/24 05:36:28;;;;;;;;;;;0.60;89.70;;;;;;5057166;28;19913;-83
2022/01/24 05:38:54;;;;;;;;;;;0.60;89.70;;;;;;5056056;28;19915;-79
2022/01/24 05:41:20;;;;;;;;;;;0.50;89.60;;;;;;5057327;28;20004;-78
2022/01/24 05:43:45;;;;;;;;;;;0.50;89.60;;;;;;5057349;28;19920;-76
2022/01/24 05:46:11;;;;;;;;;;;0.50;89.70;;;;;;5056635;28;19975;-76
2022/01/24 05:48:37;;;;;;;;;;;0.50;89.80;;;;;;5057664;28;19955;-75
2022/01/24 05:51:02;;;;;;;;;;;0.40;89.80;;;;;;5057244;28;19987;-75
2022/01/24 05:53:28;;;;;;;;;;;0.40;89.90;;;;;;5057274;28;19913;-75
2022/01/24 05:55:54;;;;;;;;;;;0.40;90.00;;;;;;5057170;28;19913;-74
2022/01/24 05:58:20;;;;;;;;;;;0.30;89.90;;;;;;5057272;28;20367;-73
2022/01/24 06:00:46;;;;;;;;;;;0.30;89.90;;;;;;5057310;28;19958;-84
2022/01/24 06:03:11;;;;;;;;;;;0.30;89.90;;;;;;5055938;28;20004;-85
2022/01/24 06:05:37;;;;;;;;;;;0.30;89.90;;;;;;5062960;28;20299;-82
2022/01/24 06:08:03;;;;;;;;;;;0.20;89.70;;;;;;5064513;28;19909;-84
2022/01/24 06:10:29;;;;;;;;;;;0.20;89.80;;;;;;5055871;28;19909;-82
2022/01/24 06:12:55;;;;;;;;;;;0.20;89.90;;;;;;5057150;28;19912;-81
2022/01/24 06:15:21;;;;;;;;;;;0.20;90.00;;;;;;5057020;28;19909;-80
2022/01/24 06:17:46;;;;;;;;;;;0.20;90.00;;;;;;5057111;28;20000;-78
2022/01/24 06:20:12;;;;;;;;;;;0.20;90.00;;;;;;5063554;28;19915;-78
2022/01/24 06:22:38;;;;;;;;;;;0.10;90.00;;;;;;5060340;28;19909;-80
2022/01/24 06:25:05;;;;;;;;;;;0.10;90.00;;;;;;5060364;28;19948;-79
2022/01/24 06:27:31;;;;;;;;;;;0.10;90.00;;;;;;5060734;28;19916;-78
2022/01/24 06:29:56;;;;;;;;;;;0.10;90.00;;;;;;5060380;28;19909;-79
2022/01/24 06:32:23;;;;;;;;;;;0.10;90.00;;;;;;5065027;28;19920;-77
2022/01/24 06:34:49;;;;;;;;;;;0.00;90.00;;;;;;5061198;28;19909;-78
2022/01/24 06:37:14;;;;;;;;;;;0.00;90.00;;;;;;5058997;28;19909;-79
2022/01/24 06:39:40;;;;;;;;;;;0.00;90.10;;;;;;5060093;28;20003;-78
2022/01/24 06:42:14;;;;;;;;;;;0.00;90.10;;;;;;5060364;28;19964;-83
2022/01/24 06:44:40;;;;;;;;;;;0.00;90.10;;;;;;5060679;28;20462;-74
2022/01/24 06:47:06;;;;;;;;;;;0.00;90.10;;;;;;5058928;28;19909;-79
2022/01/24 06:49:32;;;;;;;;;;;-0.10;90.10;;;;;;5058710;28;19915;-74
2022/01/24 06:51:58;;;;;;;;;;;-0.10;90.20;;;;;;5058855;28;19909;-75
2022/01/24 06:54:23;;;;;;;;;;;-0.10;90.20;;;;;;5058552;28;19924;-73
2022/01/24 06:56:49;;;;;;;;;;;-0.10;90.10;;;;;;5060151;28;19959;-74
2022/01/24 06:59:15;;;;;;;;;;;-0.10;90.10;;;;;;5060015;28;20398;-73
2022/01/24 07:01:40;;;;;;;;;;;-0.10;90.10;;;;;;5059875;28;19916;-73
2022/01/24 07:04:06;;;;;;;;;;;-0.10;90.20;;;;;;5059753;28;19913;-73
2022/01/24 07:06:32;;;;;;;;;;;-0.20;90.30;;;;;;5073033;28;19913;-74
2022/01/24 07:08:57;;;;;;;;;;;-0.20;90.30;;;;;;5060051;28;20368;-73
2022/01/24 07:11:23;;;;;;;;;;;-0.20;90.50;;;;;;5059888;28;19916;-74
2022/01/24 07:13:50;;;;;;;;;;;-0.20;90.30;;;;;;5059906;28;19964;-74
2022/01/24 07:16:16;;;;;;;;;;;-0.20;90.30;;;;;;5059553;28;19974;-74
2022/01/24 07:18:58;;;;;;;;;;;-0.20;90.20;;;;;;5059804;28;19992;-74
2022/01/24 07:21:23;;;;;;;;;;;-0.20;90.30;;;;;;5059209;28;19909;-74
2022/01/24 07:23:49;;;;;;;;;;;-0.30;90.30;;;;;;5059489;28;19909;-74
2022/01/24 07:26:14;;;;;;;;;;;-0.30;90.40;;;;;;5059316;28;19913;-74
2022/01/24 07:28:40;;;;;;;;;;;-0.30;90.40;;;;;;5058102;28;19916;-74
2022/01/24 07:31:06;;;;;;;;;;;-0.30;90.30;;;;;;5058768;28;19917;-75
2022/01/24 07:33:32;;;;;;;;;;;-0.30;90.30;;;;;;5065893;28;19909;-74
2022/01/24 07:35:58;;;;;;;;;;;-0.30;90.30;;;;;;5058989;28;19909;-74
2022/01/24 07:38:23;;;;;;;;;;;-0.30;90.30;;;;;;5059186;28;20073;-74
2022/01/24 07:40:51;;;;;;;;;;;-0.30;90.30;;;;;;5059094;28;19915;-73
2022/01/24 07:43:16;;;;;;;;;;;-0.30;90.30;;;;;;5058936;28;20264;-73
2022/01/24 07:45:46;;;;;;;;;;;-0.30;90.30;;;;;;5059029;28;19912;-73
2022/01/24 07:48:13;;;;;;;;;;;-0.40;90.30;;;;;;5059343;28;19932;-73
2022/01/24 07:50:41;;;;;;;;;;;-0.40;90.20;;;;;;5058849;28;19915;-73
2022/01/24 07:53:07;;;;;;;;;;;-0.40;90.20;;;;;;5058807;28;20322;-73
2022/01/24 07:55:33;;;;;;;;;;;-0.40;90.20;;;;;;5058551;28;20031;-73
2022/01/24 07:57:59;;;;;;;;;;;-0.40;90.20;;;;;;5059172;28;19955;-75
2022/01/24 08:00:25;;;;;;;;;;;-0.40;90.30;;;;;;5058748;28;19913;-75
2022/01/24 08:02:51;;;;;;;;;;;-0.40;90.30;;;;;;5059041;28;19979;-76
2022/01/24 08:05:16;;;;;;;;;;;-0.40;90.30;;;;;;5061560;28;19912;-76
2022/01/24 08:07:42;;;;;;;;;;;-0.30;90.30;;;;;;5068903;28;19909;-76
2022/01/24 08:10:08;;;;;;;;;;;-0.40;90.30;;;;;;5058443;28;19913;-76
2022/01/24 08:12:35;;;;;;;;;;;-0.30;90.30;;;;;;5058469;28;19917;-76
2022/01/24 08:15:03;;;;;;;;;;;-0.30;90.40;;;;;;5058518;28;19915;-76
2022/01/24 08:17:29;;;;;;;;;;;-0.30;90.40;;;;;;5057268;28;19909;-75
2022/01/24 08:19:55;;;;;;;;;;;-0.30;90.40;;;;;;5062545;28;19915;-75
2022/01/24 08:22:20;;;;;;;;;;;-0.20;90.40;;;;;;5056762;28;19915;-76
2022/01/24 08:24:46;;;;;;;;;;;-0.20;90.40;;;;;;5058063;28;19963;-75
2022/01/24 08:27:15;;;;;;;;;;;-0.20;90.40;;;;;;5058344;28;19912;-78
2022/01/24 08:29:43;;;;;;;;;;;-0.20;90.40;;;;;;5058080;28;19962;-81
2022/01/24 08:32:09;;;;;;;;;;;-0.10;90.50;;;;;;5062168;28;19930;-80
2022/01/24 08:34:35;;;;;;;;;;;-0.10;90.50;;;;;;5059395;28;20398;-77
2022/01/24 08:37:00;;;;;;;;;;;0.00;90.60;;;;;;5057865;28;19908;-76
2022/01/24 08:39:26;;;;;;;;;;;0.00;90.70;;;;;;5057752;28;19984;-77
2022/01/24 08:46:49;;;;;;;;;;;0.10;90.70;;;;;;5058305;28;19970;-76
2022/01/24 08:49:15;;;;;;;;;;;0.20;90.80;;;;;;5057817;28;19915;-76
2022/01/24 08:51:41;;;;;;;;;;;0.20;90.70;;;;;;5057537;28;19940;-76
2022/01/24 08:54:07;;;;;;;;;;;0.30;90.80;;;;;;5057730;28;19956;-76
2022/01/24 08:56:33;;;;;;;;;;;0.40;90.80;;;;;;5057607;28;19952;-76
2022/01/24 08:58:59;;;;;;;;;;;0.40;90.80;;;;;;5056634;28;19909;-76
2022/01/24 09:01:25;;;;;;;;;;;0.50;90.90;;;;;;5057750;28;19930;-76
2022/01/24 09:03:51;;;;;;;;;;;0.50;90.90;;;;;;5057525;28;20434;-76
2022/01/24 09:06:18;;;;;;;;;;;0.60;91.00;;;;;;5067796;28;20444;-76
2022/01/24 09:08:44;;;;;;;;;;;0.70;91.00;;;;;;5059451;28;19912;-76
2022/01/24 09:11:10;;;;;;;;;;;0.70;91.00;;;;;;5057735;28;20291;-76
2022/01/24 09:13:35;;;;;;;;;;;0.80;91.10;;;;;;5057706;28;20265;-76
2022/01/24 09:16:02;;;;;;;;;;;1.00;91.30;;;;;;5057560;28;20007;-75
2022/01/24 09:18:28;;;;;;;;;;;1.20;91.50;;;;;;5057599;28;19912;-76
2022/01/24 09:20:54;;;;;;;;;;;1.40;91.70;;;;;;5062218;28;19913;-76
2022/01/24 09:23:19;;;;;;;;;;;1.60;91.80;;;;;;5057575;28;19909;-76
2022/01/24 09:25:45;;;;;;;;;;;1.80;91.90;;;;;;5057454;28;19913;-77
2022/01/24 09:28:11;;;;;;;;;;;2.10;92.00;;;;;;5057686;28;20000;-77
2022/01/24 09:30:36;;;;;;;;;;;2.30;92.10;;;;;;5057708;28;19931;-77
2022/01/24 09:33:03;;;;;;;;;;;2.60;92.00;;;;;;5064552;28;19909;-76
2022/01/24 09:35:29;;;;;;;;;;;2.80;91.90;;;;;;5057574;28;20326;-77
2022/01/24 09:37:55;;;;;;;;;;;3.10;92.00;;;;;;5057069;28;19912;-77
2022/01/24 09:40:22;;;;;;;;;;;3.30;91.90;;;;;;5056116;28;19913;-77
2022/01/24 09:42:48;;;;;;;;;;;3.60;91.90;;;;;;5057384;28;19964;-77
2022/01/24 09:45:14;;;;;;;;;;;3.80;91.70;;;;;;5057406;28;19913;-76
2022/01/24 09:47:39;;;;;;;;;;;4.00;91.70;;;;;;5055984;28;19916;-77
2022/01/24 09:50:07;;;;;;;;;;;4.20;91.60;;;;;;5057390;28;19909;-76
2022/01/24 09:52:33;;;;;;;;;;;4.40;91.70;;;;;;5056969;28;19909;-75
2022/01/24 09:54:59;;;;;;;;;;;4.70;91.90;;;;;;5060311;28;19916;-77
2022/01/24 09:57:24;;;;;;;;;;;5.10;91.90;;;;;;5061097;28;20007;-77
2022/01/24 09:59:51;;;;;;;;;;;5.50;91.80;;;;;;5061414;28;19908;-78
2022/01/24 10:02:16;;;;;;;;;;;5.90;91.70;;;;;;5061018;28;20362;-77
2022/01/24 10:04:42;;;;;;;;;;;6.20;91.40;;;;;;5059640;28;19913;-77
2022/01/24 10:07:11;;;;;;;;;;;6.60;91.20;;;;;;5073357;28;20311;-75
2022/01/24 10:09:39;;;;;;;;;;;6.80;90.70;;;;;;5060707;28;19951;-77
2022/01/24 10:12:18;;;;;;;;;;;7.10;90.40;;;;;;5060672;28;19995;-76
2022/01/24 10:17:30;;;;;;;;;;;7.90;89.50;;;;;;5060962;28;19916;-78
2022/01/24 10:19:56;;;;;;;;;;;8.40;89.00;;;;;;5065318;28;19910;-76
2022/01/24 10:22:23;;;;;;;;;;;8.80;87.40;;;;;;5060555;28;19909;-76
2022/01/24 10:24:51;;;;;;;;;;;9.10;85.20;;;;;;5060549;28;19912;-77
2022/01/24 10:27:27;;;;;;;;;;;9.30;83.90;;;;;;5059330;28;19991;-77
2022/01/24 10:29:57;;;;;;;;;;;9.60;82.90;;;;;;5060438;28;19908;-78
2022/01/24 10:32:26;;;;;;;;;;;9.70;80.40;;;;;;5066519;28;19916;-79
2022/01/24 10:34:52;;;;;;;;;;;9.90;79.40;;;;;;5060890;28;19908;-79
2022/01/24 10:37:20;;;;;;;;;;;10.00;78.90;;;;;;5058845;28;19962;-79
2022/01/24 10:39:55;;;;;;;;;;;10.20;79.60;;;;;;5067373;28;19915;-79
2022/01/24 10:44:51;;;;;;;;;;;10.90;79.60;;;;;;5080564;28;20433;-79
2022/01/24 10:47:24;;;;;;;;;;;11.30;79.70;;;;;;5078847;28;19908;-77
2022/01/24 10:49:51;;;;;;;;;;;11.70;78.70;;;;;;5078994;28;19909;-77
2022/01/24 10:52:19;;;;;;;;;;;12.00;78.70;;;;;;5079733;28;19915;-78
2022/01/24 10:54:45;;;;;;;;;;;12.30;78.10;;;;;;5080323;28;19935;-80
2022/01/24 10:57:24;;;;;;;;;;;12.60;76.80;;;;;;5080223;28;19908;-77
2022/01/24 10:59:51;;;;;;;;;;;12.80;76.20;;;;;;5078731;28;20294;-77
2022/01/24 11:02:17;;;;;;;;;;;13.10;74.60;;;;;;5079755;28;19908;-77
2022/01/24 11:04:43;;;;;;;;;;;13.20;71.70;;;;;;5078289;28;19916;-76
2022/01/24 11:07:09;;;;;;;;;;;13.30;71.10;;;;;;5073885;28;19931;-77
2022/01/24 11:09:36;;;;;;;;;;;13.40;71.30;;;;;;5059830;28;19908;-77
2022/01/24 11:12:09;;;;;;;;;;;13.50;71.10;;;;;;5059862;28;19916;-77
2022/01/24 11:14:36;;;;;;;;;;;13.70;71.80;;;;;;5059928;28;19909;-77
2022/01/24 11:17:03;;;;;;;;;;;13.90;70.70;;;;;;5060089;28;19909;-77
2022/01/24 11:19:34;;;;;;;;;;;14.10;71.80;;;;;;5064232;28;19967;-77
2022/01/24 11:22:04;;;;;;;;;;;14.30;69.00;;;;;;5059549;28;19909;-76
2022/01/24 11:24:44;;;;;;;;;;;14.40;69.30;;;;;;5059415;28;20007;-76
2022/01/24 11:27:10;;;;;;;;;;;14.60;69.90;;;;;;5059481;28;19909;-76
2022/01/24 11:29:36;;;;;;;;;;;14.90;69.60;;;;;;5059537;28;20323;-76
2022/01/24 11:32:06;;;;;;;;;;;15.10;68.90;;;;;;5062542;28;19931;-76
2022/01/24 11:34:37;;;;;;;;;;;15.20;68.00;;;;;;5062693;28;19909;-76
2022/01/24 11:37:03;;;;;;;;;;;15.40;67.20;;;;;;5059190;28;19916;-78
2022/01/24 11:39:29;;;;;;;;;;;15.60;67.20;;;;;;5059212;28;19994;-76
2022/01/24 11:41:55;;;;;;;;;;;15.70;63.40;;;;;;5059029;28;19920;-76
2022/01/24 11:44:22;;;;;;;;;;;15.60;62.30;;;;;;5059127;28;19913;-76
2022/01/24 11:46:52;;;;;;;;;;;15.50;63.30;;;;;;5057919;28;19992;-75
2022/01/24 11:49:24;;;;;;;;;;;15.50;64.90;;;;;;5058869;28;19915;-75
2022/01/24 11:51:51;;;;;;;;;;;15.50;63.80;;;;;;5058943;28;19909;-76
2022/01/24 11:57:22;;;;;;;;;;;15.60;60.90;;;;;;5059086;28;19979;-79
2022/01/24 11:59:48;;;;;;;;;;;15.70;62.10;;;;;;5059008;28;19916;-76
2022/01/24 12:02:17;;;;;;;;;;;15.60;61.10;;;;;;5058926;28;19909;-79
2022/01/24 12:04:52;;;;;;;;;;;15.60;61.60;;;;;;5059241;28;19913;-77
2022/01/24 12:07:20;;;;;;;;;;;15.50;59.30;;;;;;5058760;28;19909;-77
2022/01/24 12:09:46;;;;;;;;;;;15.40;59.70;;;;;;5058597;28;19984;-77
2022/01/24 12:12:34;;;;;;;;;;;15.20;58.80;;;;;;5065340;28;19908;-77
2022/01/24 12:15:00;;;;;;;;;;;15.10;60.40;;;;;;5078360;28;19909;-78
2022/01/24 12:17:46;;;;;;;;;;;15.00;58.70;;;;;;5078621;28;19915;-77
2022/01/24 12:20:30;;;;;;;;;;;14.90;61.00;;;;;;5072899;28;19972;-77
2022/01/24 12:22:59;;;;;;;;;;;14.80;59.80;;;;;;5058122;28;20352;-77
2022/01/24 12:25:44;;;;;;;;;;;14.80;60.10;;;;;;5058301;28;19919;-78
2022/01/24 12:28:16;;;;;;;;;;;14.80;59.50;;;;;;5063655;28;20341;-77
2022/01/24 12:31:00;;;;;;;;;;;14.70;59.70;;;;;;5071533;28;20346;-77
2022/01/24 12:33:30;;;;;;;;;;;14.70;59.70;;;;;;5072780;28;19962;-76
2022/01/24 12:35:56;;;;;;;;;;;14.60;59.60;;;;;;5071651;28;19952;-76
2022/01/24 12:38:22;;;;;;;;;;;14.50;60.60;;;;;;5073930;28;19954;-75
2022/01/24 12:40:48;;;;;;;;;;;14.50;60.90;;;;;;5077221;28;19909;-75
2022/01/24 12:43:29;;;;;;;;;;;14.50;60.70;;;;;;5068214;28;19928;-75
2022/01/24 12:48:40;;;;;;;;;;;14.40;61.10;;;;;;5072871;28;20190;-75
2022/01/24 12:51:07;;;;;;;;;;;14.40;61.60;;;;;;5075484;28;19966;-75
2022/01/24 12:53:37;;;;;;;;;;;14.40;61.00;;;;;;5077416;28;19916;-75
2022/01/24 12:56:04;;;;;;;;;;;14.40;61.20;;;;;;5077482;28;19909;-75
2022/01/24 12:58:40;;;;;;;;;;;14.50;61.00;;;;;;5077398;28;19916;-75
2022/01/24 13:01:24;;;;;;;;;;;14.50;61.40;;;;;;5066957;28;19909;-75
2022/01/24 13:03:51;;;;;;;;;;;14.60;63.10;;;;;;5067229;28;19965;-75
2022/01/24 13:06:18;;;;;;;;;;;14.70;63.40;;;;;;5068432;28;19921;-75
2022/01/24 13:08:56;;;;;;;;;;;14.90;61.00;;;;;;5072514;28;19909;-75
2022/01/24 13:11:21;;;;;;;;;;;14.90;61.60;;;;;;5068955;28;19932;-75
2022/01/24 13:14:21;;;;;;;;;;;14.90;60.80;;;;;;5063156;28;19909;-76
2022/01/24 13:22:22;;;;;;;;;;;14.90;62.20;;;;;;5068204;28;20379;-76
2022/01/24 13:25:07;;;;;;;;;;;14.90;61.40;;;;;;5066401;28;20372;-76
2022/01/24 13:27:51;;;;;;;;;;;14.90;61.50;;;;;;5075906;28;19909;-76
2022/01/24 13:30:25;;;;;;;;;;;14.90;62.00;;;;;;5070388;28;19943;-75
2022/01/24 13:32:58;;;;;;;;;;;14.90;62.30;;;;;;5075552;28;19909;-76
2022/01/24 13:35:26;;;;;;;;;;;14.90;62.60;;;;;;5067966;28;19947;-75
2022/01/24 13:37:54;;;;;;;;;;;14.80;60.60;;;;;;5071952;28;19915;-75
2022/01/24 13:40:40;;;;;;;;;;;14.70;60.70;;;;;;5068917;28;20287;-75
2022/01/24 13:43:07;;;;;;;;;;;14.50;60.70;;;;;;5065152;28;19921;-76
2022/01/24 13:45:34;;;;;;;;;;;14.40;61.80;;;;;;5069359;28;19916;-76
2022/01/24 13:48:00;;;;;;;;;;;14.30;62.40;;;;;;5071392;28;19947;-75
2022/01/24 13:50:26;;;;;;;;;;;14.30;62.30;;;;;;5069189;28;19948;-83
2022/01/24 13:52:52;;;;;;;;;;;14.20;62.40;;;;;;5066056;28;20367;-81
2022/01/24 13:55:19;;;;;;;;;;;14.20;63.40;;;;;;5068963;28;19936;-80
2022/01/24 13:57:48;;;;;;;;;;;14.20;63.60;;;;;;5064695;28;20378;-80
2022/01/24 14:00:16;;;;;;;;;;;14.20;63.40;;;;;;5077408;28;19909;-81
2022/01/24 14:02:41;;;;;;;;;;;14.20;63.80;;;;;;5071487;28;20047;-79
2022/01/24 14:05:08;;;;;;;;;;;14.20;64.50;;;;;;5067065;28;19951;-82
2022/01/24 14:07:41;;;;;;;;;;;14.20;63.80;;;;;;5075647;28;19912;-83
2022/01/24 14:10:12;;;;;;;;;;;14.10;63.20;;;;;;5080832;28;19908;-80
2022/01/24 14:12:43;;;;;;;;;;;14.00;64.30;;;;;;5080649;28;19908;-81
2022/01/24 14:15:18;;;;;;;;;;;13.80;62.60;;;;;;5080574;28;19908;-81
2022/01/24 14:17:53;;;;;;;;;;;13.60;63.10;;;;;;5079337;28;19909;-86
2022/01/24 14:20:21;;;;;;;;;;;13.30;63.20;;;;;;5078135;28;19918;-85
2022/01/24 14:22:51;;;;;;;;;;;12.90;62.90;;;;;;5080122;28;19917;-78
2022/01/24 14:25:22;;;;;;;;;;;12.60;63.90;;;;;;5080496;28;19912;-88
2022/01/24 14:27:51;;;;;;;;;;;12.40;65.20;;;;;;5080315;28;19908;-88
2022/01/24 14:30:19;;;;;;;;;;;12.10;66.00;;;;;;5080632;28;19913;-86
2022/01/24 14:33:01;;;;;;;;;;;12.00;66.10;;;;;;5080255;28;19974;-86
2022/01/24 14:35:28;;;;;;;;;;;11.70;66.90;;;;;;5070876;28;20375;-87
2022/01/24 14:37:55;;;;;;;;;;;11.50;67.40;;;;;;5080084;28;19916;-85
2022/01/24 14:40:31;;;;;;;;;;;11.40;68.50;;;;;;5077651;28;19908;-87
2022/01/24 14:44:53;;;;;;;;;;;11.30;68.20;;;;;;5072097;28;19986;-82
2022/01/24 14:45:42;;;;;;;;;;;11.20;68.40;;;;;;5079994;28;19916;-82
2022/01/24 14:48:08;;;;;;;;;;;11.00;67.80;;;;;;5079069;28;19909;-82
2022/01/24 14:50:34;;;;;;;;;;;10.90;69.10;;;;;;5079786;28;20430;-82
2022/01/24 14:53:04;;;;;;;;;;;10.70;68.70;;;;;;5078647;28;20422;-81
2022/01/24 14:55:30;;;;;;;;;;;10.60;68.60;;;;;;5079886;28;19915;-80
2022/01/24 14:57:55;;;;;;;;;;;10.40;69.10;;;;;;5078519;28;19916;-82
2022/01/24 15:00:21;;;;;;;;;;;10.40;70.10;;;;;;5078404;28;19908;-80
2022/01/24 15:02:47;;;;;;;;;;;10.30;70.80;;;;;;5079778;28;20387;-78
2022/01/24 15:05:12;;;;;;;;;;;10.30;70.50;;;;;;5078678;28;19912;-80
2022/01/24 15:07:38;;;;;;;;;;;10.20;70.60;;;;;;5067364;28;19915;-79
2022/01/24 15:10:04;;;;;;;;;;;10.20;70.90;;;;;;5079715;28;19919;-82
2022/01/24 15:12:30;;;;;;;;;;;10.10;70.50;;;;;;5079807;28;19908;-80
2022/01/24 15:14:59;;;;;;;;;;;10.00;71.10;;;;;;5079532;28;19965;-80
2022/01/24 15:23:58;;;;;;;;;;;10.00;71.30;;;;;;5079705;28;19915;-80
2022/01/24 15:25:40;;;;;;;;;;;9.80;71.60;;;;;;5079343;28;19919;-81
2022/01/24 15:28:06;;;;;;;;;;;9.70;72.00;;;;;;5079566;28;19908;-80
2022/01/24 15:30:34;;;;;;;;;;;9.60;72.60;;;;;;5079580;28;19909;-78
2022/01/24 15:33:00;;;;;;;;;;;9.60;72.50;;;;;;5079381;28;19908;-80
2022/01/24 15:35:26;;;;;;;;;;;9.50;72.70;;;;;;5078804;28;19999;-79
2022/01/24 15:37:52;;;;;;;;;;;9.50;72.60;;;;;;5079085;28;19915;-80
2022/01/24 15:40:19;;;;;;;;;;;9.50;72.70;;;;;;5079244;28;19908;-78
2022/01/24 15:45:34;;;;;;;;;;;9.30;73.00;;;;;;5079196;28;19912;-78
2022/01/24 15:48:00;;;;;;;;;;;9.30;73.30;;;;;;5068126;28;20279;-78
2022/01/24 15:50:27;;;;;;;;;;;9.20;73.40;;;;;;5078836;28;19909;-78
2022/01/24 15:52:53;;;;;;;;;;;9.20;73.50;;;;;;5078709;28;19916;-78
2022/01/24 15:55:24;;;;;;;;;;;9.10;73.60;;;;;;5078785;28;19908;-76
2022/01/24 15:57:49;;;;;;;;;;;9.00;73.90;;;;;;5077591;28;19953;-83
2022/01/24 16:00:19;;;;;;;;;;;9.00;74.00;;;;;;5078844;28;19944;-75
2022/01/24 16:02:50;;;;;;;;;;;8.90;74.20;;;;;;5077486;28;20351;-74
2022/01/24 16:05:17;;;;;;;;;;;8.90;74.50;;;;;;5075423;28;20401;-73
2022/01/24 16:07:42;;;;;;;;;;;8.80;74.90;;;;;;5067164;28;19987;-74
2022/01/24 16:10:13;;;;;;;;;;;8.80;75.10;;;;;;5078418;28;19947;-74
2022/01/24 16:12:39;;;;;;;;;;;8.70;75.30;;;;;;5078774;28;20359;-74
2022/01/24 16:15:06;;;;;;;;;;;8.70;75.60;;;;;;5078416;28;19912;-73
2022/01/24 16:17:31;;;;;;;;;;;8.60;75.70;;;;;;5078600;28;19999;-74
2022/01/24 16:19:58;;;;;;;;;;;8.60;75.80;;;;;;5078343;28;19956;-72
2022/01/24 16:22:45;;;;;;;;;;;8.50;76.60;;;;;;5078260;28;19916;-75
2022/01/24 16:27:55;;;;;;;;;;;8.40;76.30;;;;;;5078446;28;19932;-73
2022/01/24 16:30:21;;;;;;;;;;;8.40;76.40;;;;;;5078453;28;19908;-69
2022/01/24 16:32:46;;;;;;;;;;;8.20;76.50;;;;;;5078085;28;20453;-70
2022/01/24 16:35:12;;;;;;;;;;;8.20;76.60;;;;;;5066423;28;19909;-70
2022/01/24 16:37:38;;;;;;;;;;;8.10;76.60;;;;;;5073607;28;19909;-72